sensor_id;sensor_type;location;lat;lon;timestamp;temperature;humidity
26212;DHT22;13951;49.516;6.094;2023-03-23T00:00:35;11.70;99.90
26212;DHT22;13951;49.516;6.094;2023-03-23T00:03:08;11.80;99.90
26212;DHT22;13951;49.516;6.094;2023-03-23T00:05:40;11.80;99.90
26212;DHT22;13951;49.516;6.094;2023-03-23T00:08:21;11.80;99.90
26212;DHT22;13951;49.516;6.094;2023-03-23T00:10:53;11.90;99.90
26212;DHT22;13951;49.516;6.094;2023-03-23T00:13:29;11.90;99.90
26212;DHT22;13951;49.516;6.094;2023-03-23T00:16:00;11.90;99.90
26212;DHT22;13951;49.516;6.094;2023-03-23T00:18:33;11.90;99.90
26212;DHT22;13951;49.516;6.094;2023-03-23T00:21:07;12.00;99.90
26212;DHT22;13951;49.516;6.094;2023-03-23T00:23:40;12.00;99.90
26212;DHT22;13951;49.516;6.094;2023-03-23T00:26:12;12.00;99.90
26212;DHT22;13951;49.516;6.094;2023-03-23T00:28:44;12.00;99.90
26212;DHT22;13951;49.516;6.094;2023-03-23T00:31:18;12.00;99.90
26212;DHT22;13951;49.516;6.094;2023-03-23T00:33:50;12.00;99.90
26212;DHT22;13951;49.516;6.094;2023-03-23T00:36:22;12.00;99.90
26212;DHT22;13951;49.516;6.094;2023-03-23T00:38:54;12.00;99.90
26212;DHT22;13951;49.516;6.094;2023-03-23T00:41:30;12.00;99.90
26212;DHT22;13951;49.516;6.094;2023-03-23T00:44:05;12.00;99.90
26212;DHT22;13951;49.516;6.094;2023-03-23T00:46:41;12.00;99.90
26212;DHT22;13951;49.516;6.094;2023-03-23T00:49:20;12.10;99.90
26212;DHT22;13951;49.516;6.094;2023-03-23T00:51:56;12.10;99.90
26212;DHT22;13951;49.516;6.094;2023-03-23T00:54:28;12.10;99.90
26212;DHT22;13951;49.516;6.094;2023-03-23T00:57:01;12.10;99.90
26212;DHT22;13951;49.516;6.094;2023-03-23T00:59:32;12.00;99.90
26212;DHT22;13951;49.516;6.094;2023-03-23T01:02:05;12.00;99.90
26212;DHT22;13951;49.516;6.094;2023-03-23T01:04:40;12.00;99.90
26212;DHT22;13951;49.516;6.094;2023-03-23T01:07:16;12.00;99.90
26212;DHT22;13951;49.516;6.094;2023-03-23T01:09:49;11.90;99.90
26212;DHT22;13951;49.516;6.094;2023-03-23T01:12:24;11.90;99.90
26212;DHT22;13951;49.516;6.094;2023-03-23T01:14:57;11.80;99.90
26212;DHT22;13951;49.516;6.094;2023-03-23T01:17:29;11.70;99.90
26212;DHT22;13951;49.516;6.094;2023-03-23T01:20:01;11.60;99.90
26212;DHT22;13951;49.516;6.094;2023-03-23T01:22:33;11.60;99.90
26212;DHT22;13951;49.516;6.094;2023-03-23T01:25:05;11.50;99.90
26212;DHT22;13951;49.516;6.094;2023-03-23T01:27:39;11.40;99.90
26212;DHT22;13951;49.516;6.094;2023-03-23T01:30:12;11.30;99.90
26212;DHT22;13951;49.516;6.094;2023-03-23T01:32:44;11.20;99.90
26212;DHT22;13951;49.516;6.094;2023-03-23T01:35:16;11.10;99.90
26212;DHT22;13951;49.516;6.094;2023-03-23T01:37:49;11.00;99.90
26212;DHT22;13951;49.516;6.094;2023-03-23T01:40:20;11.00;99.90
26212;DHT22;13951;49.516;6.094;2023-03-23T01:42:53;10.90;99.90
26212;DHT22;13951;49.516;6.094;2023-03-23T01:45:29;10.90;99.90
26212;DHT22;13951;49.516;6.094;2023-03-23T01:48:06;10.90;99.90
26212;DHT22;13951;49.516;6.094;2023-03-23T01:51:14;10.90;99.90
26212;DHT22;13951;49.516;6.094;2023-03-23T01:53:57;10.90;99.90
26212;DHT22;13951;49.516;6.094;2023-03-23T01:56:39;10.80;99.90
26212;DHT22;13951;49.516;6.094;2023-03-23T01:59:13;10.80;99.90
26212;DHT22;13951;49.516;6.094;2023-03-23T02:01:50;10.80;99.90
26212;DHT22;13951;49.516;6.094;2023-03-23T02:04:26;10.70;99.90
26212;DHT22;13951;49.516;6.094;2023-03-23T02:06:58;10.70;99.90
26212;DHT22;13951;49.516;6.094;2023-03-23T02:09:32;10.70;99.90
26212;DHT22;13951;49.516;6.094;2023-03-23T02:12:04;10.60;99.90
26212;DHT22;13951;49.516;6.094;2023-03-23T02:14:38;10.70;99.90
26212;DHT22;13951;49.516;6.094;2023-03-23T02:23:14;10.60;99.90
26212;DHT22;13951;49.516;6.094;2023-03-23T02:26:19;10.60;99.90
26212;DHT22;13951;49.516;6.094;2023-03-23T02:34:27;10.60;99.90
26212;DHT22;13951;49.516;6.094;2023-03-23T02:37:07;10.50;99.90
26212;DHT22;13951;49.516;6.094;2023-03-23T02:39:48;10.50;99.90
26212;DHT22;13951;49.516;6.094;2023-03-23T02:42:27;10.50;99.90
26212;DHT22;13951;49.516;6.094;2023-03-23T02:45:03;10.50;99.90
26212;DHT22;13951;49.516;6.094;2023-03-23T02:47:38;10.50;99.90
26212;DHT22;13951;49.516;6.094;2023-03-23T02:50:14;10.50;99.90
26212;DHT22;13951;49.516;6.094;2023-03-23T02:52:49;10.50;99.90
26212;DHT22;13951;49.516;6.094;2023-03-23T02:55:22;10.50;99.90
26212;DHT22;13951;49.516;6.094;2023-03-23T02:57:57;10.50;99.90
26212;DHT22;13951;49.516;6.094;2023-03-23T03:00:34;10.50;99.90
26212;DHT22;13951;49.516;6.094;2023-03-23T03:03:13;10.50;99.90
26212;DHT22;13951;49.516;6.094;2023-03-23T03:08:50;10.50;99.90
26212;DHT22;13951;49.516;6.094;2023-03-23T03:11:25;10.50;99.90
26212;DHT22;13951;49.516;6.094;2023-03-23T03:14:05;10.50;99.90
26212;DHT22;13951;49.516;6.094;2023-03-23T03:16:52;10.50;99.90
26212;DHT22;13951;49.516;6.094;2023-03-23T03:19:40;10.50;99.90
26212;DHT22;13951;49.516;6.094;2023-03-23T03:22:14;10.50;99.90
26212;DHT22;13951;49.516;6.094;2023-03-23T03:24:47;10.50;99.90
26212;DHT22;13951;49.516;6.094;2023-03-23T03:27:20;10.50;99.90
26212;DHT22;13951;49.516;6.094;2023-03-23T03:30:09;10.50;99.90
26212;DHT22;13951;49.516;6.094;2023-03-23T03:32:48;10.60;99.90
26212;DHT22;13951;49.516;6.094;2023-03-23T03:35:23;10.60;99.90
26212;DHT22;13951;49.516;6.094;2023-03-23T03:37:56;10.60;99.90
26212;DHT22;13951;49.516;6.094;2023-03-23T03:40:29;10.60;99.90
26212;DHT22;13951;49.516;6.094;2023-03-23T03:43:02;10.60;99.90
26212;DHT22;13951;49.516;6.094;2023-03-23T03:45:33;10.60;99.90
26212;DHT22;13951;49.516;6.094;2023-03-23T03:48:05;10.60;99.90
26212;DHT22;13951;49.516;6.094;2023-03-23T03:50:38;10.60;99.90
26212;DHT22;13951;49.516;6.094;2023-03-23T03:53:11;10.60;99.90
26212;DHT22;13951;49.516;6.094;2023-03-23T03:55:43;10.60;99.90
26212;DHT22;13951;49.516;6.094;2023-03-23T03:58:17;10.60;99.90
26212;DHT22;13951;49.516;6.094;2023-03-23T04:01:10;10.60;99.90
26212;DHT22;13951;49.516;6.094;2023-03-23T04:03:45;10.60;99.90
26212;DHT22;13951;49.516;6.094;2023-03-23T04:06:26;10.60;99.90
26212;DHT22;13951;49.516;6.094;2023-03-23T04:08:59;10.60;99.90
26212;DHT22;13951;49.516;6.094;2023-03-23T04:11:33;10.60;99.90
26212;DHT22;13951;49.516;6.094;2023-03-23T04:14:25;10.60;99.90
26212;DHT22;13951;49.516;6.094;2023-03-23T04:17:00;10.60;99.90
26212;DHT22;13951;49.516;6.094;2023-03-23T04:19:31;10.60;99.90
26212;DHT22;13951;49.516;6.094;2023-03-23T04:22:06;10.60;99.90
26212;DHT22;13951;49.516;6.094;2023-03-23T04:24:40;10.60;99.90
26212;DHT22;13951;49.516;6.094;2023-03-23T04:27:16;10.60;99.90
26212;DHT22;13951;49.516;6.094;2023-03-23T04:29:49;10.60;99.90
26212;DHT22;13951;49.516;6.094;2023-03-23T04:32:41;10.60;99.90
26212;DHT22;13951;49.516;6.094;2023-03-23T04:35:13;10.70;99.90
26212;DHT22;13951;49.516;6.094;2023-03-23T04:37:51;10.60;99.90
26212;DHT22;13951;49.516;6.094;2023-03-23T04:40:25;10.60;99.90
26212;DHT22;13951;49.516;6.094;2023-03-23T04:43:08;10.60;99.90
26212;DHT22;13951;49.516;6.094;2023-03-23T04:45:59;10.60;99.90
26212;DHT22;13951;49.516;6.094;2023-03-23T04:48:35;10.60;99.90
26212;DHT22;13951;49.516;6.094;2023-03-23T04:51:15;10.60;99.90
26212;DHT22;13951;49.516;6.094;2023-03-23T04:53:50;10.60;99.90
26212;DHT22;13951;49.516;6.094;2023-03-23T04:56:22;10.70;99.90
26212;DHT22;13951;49.516;6.094;2023-03-23T04:58:56;10.70;99.90
26212;DHT22;13951;49.516;6.094;2023-03-23T05:01:36;10.70;99.90
26212;DHT22;13951;49.516;6.094;2023-03-23T05:04:19;10.70;99.90
26212;DHT22;13951;49.516;6.094;2023-03-23T05:07:01;10.70;99.90
26212;DHT22;13951;49.516;6.094;2023-03-23T05:09:36;10.70;99.90
26212;DHT22;13951;49.516;6.094;2023-03-23T05:12:09;10.70;99.90
26212;DHT22;13951;49.516;6.094;2023-03-23T05:14:51;10.70;99.90
26212;DHT22;13951;49.516;6.094;2023-03-23T05:17:26;10.70;99.90
26212;DHT22;13951;49.516;6.094;2023-03-23T05:20:04;10.70;99.90
26212;DHT22;13951;49.516;6.094;2023-03-23T05:22:47;10.70;99.90
26212;DHT22;13951;49.516;6.094;2023-03-23T05:25:24;10.70;99.90
26212;DHT22;13951;49.516;6.094;2023-03-23T05:28:03;10.80;99.90
26212;DHT22;13951;49.516;6.094;2023-03-23T05:30:53;10.80;99.90
26212;DHT22;13951;49.516;6.094;2023-03-23T05:33:26;10.80;99.90
26212;DHT22;13951;49.516;6.094;2023-03-23T05:36:12;10.80;99.90
26212;DHT22;13951;49.516;6.094;2023-03-23T05:39:13;10.80;99.90
26212;DHT22;13951;49.516;6.094;2023-03-23T05:42:04;10.80;99.90
26212;DHT22;13951;49.516;6.094;2023-03-23T05:44:49;10.80;99.90
26212;DHT22;13951;49.516;6.094;2023-03-23T05:47:21;10.70;99.90
26212;DHT22;13951;49.516;6.094;2023-03-23T05:49:59;10.70;99.90
26212;DHT22;13951;49.516;6.094;2023-03-23T05:52:33;10.80;99.90
26212;DHT22;13951;49.516;6.094;2023-03-23T05:55:09;10.70;99.90
26212;DHT22;13951;49.516;6.094;2023-03-23T05:57:43;10.80;99.90
26212;DHT22;13951;49.516;6.094;2023-03-23T06:00:47;10.80;99.90
26212;DHT22;13951;49.516;6.094;2023-03-23T06:03:31;10.80;99.90
26212;DHT22;13951;49.516;6.094;2023-03-23T06:06:10;10.80;99.90
26212;DHT22;13951;49.516;6.094;2023-03-23T06:08:53;10.80;99.90
26212;DHT22;13951;49.516;6.094;2023-03-23T06:11:38;10.80;99.90
26212;DHT22;13951;49.516;6.094;2023-03-23T06:14:32;10.80;99.90
26212;DHT22;13951;49.516;6.094;2023-03-23T06:17:05;10.80;99.90
26212;DHT22;13951;49.516;6.094;2023-03-23T06:19:37;10.80;99.90
26212;DHT22;13951;49.516;6.094;2023-03-23T06:22:17;10.80;99.90
26212;DHT22;13951;49.516;6.094;2023-03-23T06:24:49;10.80;99.90
26212;DHT22;13951;49.516;6.094;2023-03-23T06:27:25;10.80;99.90
26212;DHT22;13951;49.516;6.094;2023-03-23T06:30:00;10.80;99.90
26212;DHT22;13951;49.516;6.094;2023-03-23T06:32:33;10.80;99.90
26212;DHT22;13951;49.516;6.094;2023-03-23T06:35:07;10.90;99.90
26212;DHT22;13951;49.516;6.094;2023-03-23T06:38:04;10.80;99.90
26212;DHT22;13951;49.516;6.094;2023-03-23T06:40:58;10.80;99.90
26212;DHT22;13951;49.516;6.094;2023-03-23T06:43:32;10.80;99.90
26212;DHT22;13951;49.516;6.094;2023-03-23T06:46:16;10.80;99.90
26212;DHT22;13951;49.516;6.094;2023-03-23T06:48:48;10.80;99.90
26212;DHT22;13951;49.516;6.094;2023-03-23T06:51:23;10.80;99.90
26212;DHT22;13951;49.516;6.094;2023-03-23T06:53:58;10.70;99.90
26212;DHT22;13951;49.516;6.094;2023-03-23T06:56:32;10.80;99.90
26212;DHT22;13951;49.516;6.094;2023-03-23T06:59:03;10.70;99.90
26212;DHT22;13951;49.516;6.094;2023-03-23T07:01:35;10.70;99.90
26212;DHT22;13951;49.516;6.094;2023-03-23T07:04:08;10.70;99.90
26212;DHT22;13951;49.516;6.094;2023-03-23T07:07:10;10.70;99.90
26212;DHT22;13951;49.516;6.094;2023-03-23T07:09:52;10.70;99.90
26212;DHT22;13951;49.516;6.094;2023-03-23T07:12:28;10.70;99.90
26212;DHT22;13951;49.516;6.094;2023-03-23T07:15:01;10.70;99.90
26212;DHT22;13951;49.516;6.094;2023-03-23T07:17:34;10.70;99.90
26212;DHT22;13951;49.516;6.094;2023-03-23T07:20:13;10.70;99.90
26212;DHT22;13951;49.516;6.094;2023-03-23T07:22:47;10.80;99.90
26212;DHT22;13951;49.516;6.094;2023-03-23T07:28:08;10.80;99.90
26212;DHT22;13951;49.516;6.094;2023-03-23T07:30:40;10.80;99.90
26212;DHT22;13951;49.516;6.094;2023-03-23T07:33:14;10.80;99.90
26212;DHT22;13951;49.516;6.094;2023-03-23T07:35:46;10.80;99.90
26212;DHT22;13951;49.516;6.094;2023-03-23T07:38:21;10.90;99.90
26212;DHT22;13951;49.516;6.094;2023-03-23T07:40:55;10.90;99.90
26212;DHT22;13951;49.516;6.094;2023-03-23T07:43:28;10.90;99.90
26212;DHT22;13951;49.516;6.094;2023-03-23T07:46:05;10.90;99.90
26212;DHT22;13951;49.516;6.094;2023-03-23T07:49:02;10.90;99.90
26212;DHT22;13951;49.516;6.094;2023-03-23T07:51:43;10.90;99.90
26212;DHT22;13951;49.516;6.094;2023-03-23T07:54:17;10.90;99.90
26212;DHT22;13951;49.516;6.094;2023-03-23T07:57:09;11.00;99.90
26212;DHT22;13951;49.516;6.094;2023-03-23T07:59:45;11.00;99.90
26212;DHT22;13951;49.516;6.094;2023-03-23T08:02:18;11.00;99.90
26212;DHT22;13951;49.516;6.094;2023-03-23T08:05:01;11.00;99.90
26212;DHT22;13951;49.516;6.094;2023-03-23T08:07:50;10.90;99.90
26212;DHT22;13951;49.516;6.094;2023-03-23T08:10:40;10.90;99.90
26212;DHT22;13951;49.516;6.094;2023-03-23T08:13:24;10.90;99.90
26212;DHT22;13951;49.516;6.094;2023-03-23T08:16:16;10.90;99.90
26212;DHT22;13951;49.516;6.094;2023-03-23T08:19:17;10.90;99.90
26212;DHT22;13951;49.516;6.094;2023-03-23T08:22:08;10.90;99.90
26212;DHT22;13951;49.516;6.094;2023-03-23T08:25:00;10.90;99.90
26212;DHT22;13951;49.516;6.094;2023-03-23T08:27:53;11.00;99.90
26212;DHT22;13951;49.516;6.094;2023-03-23T08:30:38;11.00;99.90
26212;DHT22;13951;49.516;6.094;2023-03-23T08:33:28;11.00;99.90
26212;DHT22;13951;49.516;6.094;2023-03-23T08:36:00;11.00;99.90
26212;DHT22;13951;49.516;6.094;2023-03-23T08:38:49;11.00;99.90
26212;DHT22;13951;49.516;6.094;2023-03-23T08:41:55;11.00;99.90
26212;DHT22;13951;49.516;6.094;2023-03-23T08:45:07;11.00;99.90
26212;DHT22;13951;49.516;6.094;2023-03-23T08:48:05;11.00;99.90
26212;DHT22;13951;49.516;6.094;2023-03-23T08:50:39;11.10;99.90
26212;DHT22;13951;49.516;6.094;2023-03-23T08:53:23;11.00;99.90
26212;DHT22;13951;49.516;6.094;2023-03-23T08:56:06;11.00;99.90
26212;DHT22;13951;49.516;6.094;2023-03-23T08:59:02;11.10;99.90
26212;DHT22;13951;49.516;6.094;2023-03-23T09:01:42;11.00;99.90
26212;DHT22;13951;49.516;6.094;2023-03-23T09:04:25;11.10;99.90
26212;DHT22;13951;49.516;6.094;2023-03-23T09:07:15;11.10;99.90
26212;DHT22;13951;49.516;6.094;2023-03-23T09:09:46;11.20;99.90
26212;DHT22;13951;49.516;6.094;2023-03-23T09:12:18;11.20;99.90
26212;DHT22;13951;49.516;6.094;2023-03-23T09:14:50;11.20;99.90
26212;DHT22;13951;49.516;6.094;2023-03-23T09:17:22;11.20;99.90
26212;DHT22;13951;49.516;6.094;2023-03-23T09:19:54;11.30;99.90
26212;DHT22;13951;49.516;6.094;2023-03-23T09:22:26;11.30;99.90
26212;DHT22;13951;49.516;6.094;2023-03-23T09:24:59;11.30;99.90
26212;DHT22;13951;49.516;6.094;2023-03-23T09:27:31;11.40;99.90
26212;DHT22;13951;49.516;6.094;2023-03-23T09:30:05;11.50;99.90
26212;DHT22;13951;49.516;6.094;2023-03-23T09:32:38;11.50;99.90
26212;DHT22;13951;49.516;6.094;2023-03-23T09:35:10;11.60;99.90
26212;DHT22;13951;49.516;6.094;2023-03-23T09:37:47;11.60;99.90
26212;DHT22;13951;49.516;6.094;2023-03-23T09:43:45;11.60;99.90
26212;DHT22;13951;49.516;6.094;2023-03-23T09:46:22;11.60;99.90
26212;DHT22;13951;49.516;6.094;2023-03-23T09:49:00;11.60;99.90
26212;DHT22;13951;49.516;6.094;2023-03-23T09:51:45;11.70;99.90
26212;DHT22;13951;49.516;6.094;2023-03-23T09:54:31;11.70;99.90
26212;DHT22;13951;49.516;6.094;2023-03-23T10:00:56;11.90;99.90
26212;DHT22;13951;49.516;6.094;2023-03-23T10:03:43;11.90;99.90
26212;DHT22;13951;49.516;6.094;2023-03-23T10:06:17;12.10;99.90
26212;DHT22;13951;49.516;6.094;2023-03-23T10:08:53;12.20;99.90
26212;DHT22;13951;49.516;6.094;2023-03-23T10:11:41;12.20;99.90
26212;DHT22;13951;49.516;6.094;2023-03-23T10:17:28;12.40;99.90
26212;DHT22;13951;49.516;6.094;2023-03-23T10:20:09;12.40;99.90
26212;DHT22;13951;49.516;6.094;2023-03-23T10:23:13;12.30;99.90
26212;DHT22;13951;49.516;6.094;2023-03-23T10:29:16;12.40;99.90
26212;DHT22;13951;49.516;6.094;2023-03-23T10:37:21;12.60;99.90
26212;DHT22;13951;49.516;6.094;2023-03-23T10:39:57;12.70;99.90
26212;DHT22;13951;49.516;6.094;2023-03-23T10:42:32;12.80;99.90
26212;DHT22;13951;49.516;6.094;2023-03-23T10:45:22;12.80;99.90
26212;DHT22;13951;49.516;6.094;2023-03-23T10:48:20;12.80;99.90
26212;DHT22;13951;49.516;6.094;2023-03-23T10:50:56;12.80;99.90
26212;DHT22;13951;49.516;6.094;2023-03-23T10:53:37;12.80;99.90
26212;DHT22;13951;49.516;6.094;2023-03-23T10:59:26;12.80;99.90
26212;DHT22;13951;49.516;6.094;2023-03-23T11:02:02;12.80;99.90
26212;DHT22;13951;49.516;6.094;2023-03-23T11:04:34;12.80;99.90
26212;DHT22;13951;49.516;6.094;2023-03-23T11:07:21;12.90;99.90
26212;DHT22;13951;49.516;6.094;2023-03-23T11:09:59;13.00;99.90
26212;DHT22;13951;49.516;6.094;2023-03-23T11:12:35;13.00;99.90
26212;DHT22;13951;49.516;6.094;2023-03-23T11:15:23;13.20;99.90
26212;DHT22;13951;49.516;6.094;2023-03-23T11:18:04;13.40;99.90
26212;DHT22;13951;49.516;6.094;2023-03-23T11:20:39;13.50;99.90
26212;DHT22;13951;49.516;6.094;2023-03-23T11:23:23;13.50;99.90
26212;DHT22;13951;49.516;6.094;2023-03-23T11:28:30;13.50;99.90
26212;DHT22;13951;49.516;6.094;2023-03-23T11:31:05;13.40;99.90
26212;DHT22;13951;49.516;6.094;2023-03-23T11:36:58;13.30;99.90
26212;DHT22;13951;49.516;6.094;2023-03-23T11:39:33;13.10;99.90
26212;DHT22;13951;49.516;6.094;2023-03-23T11:48:37;13.20;99.90
26212;DHT22;13951;49.516;6.094;2023-03-23T11:51:17;13.10;99.90
26212;DHT22;13951;49.516;6.094;2023-03-23T11:57:11;13.00;99.90
26212;DHT22;13951;49.516;6.094;2023-03-23T11:59:44;13.00;99.90
26212;DHT22;13951;49.516;6.094;2023-03-23T12:02:21;13.00;99.90
26212;DHT22;13951;49.516;6.094;2023-03-23T12:16:34;13.20;99.90
26212;DHT22;13951;49.516;6.094;2023-03-23T12:19:42;13.10;99.90
26212;DHT22;13951;49.516;6.094;2023-03-23T12:22:40;13.20;99.90
26212;DHT22;13951;49.516;6.094;2023-03-23T12:28:22;13.30;99.90
26212;DHT22;13951;49.516;6.094;2023-03-23T12:31:15;13.30;99.90
26212;DHT22;13951;49.516;6.094;2023-03-23T12:40:00;13.80;99.90
26212;DHT22;13951;49.516;6.094;2023-03-23T12:48:12;14.30;99.90
26212;DHT22;13951;49.516;6.094;2023-03-23T12:51:35;14.60;99.90
26212;DHT22;13951;49.516;6.094;2023-03-23T12:53:51;14.80;99.90
26212;DHT22;13951;49.516;6.094;2023-03-23T12:56:34;15.10;99.90
26212;DHT22;13951;49.516;6.094;2023-03-23T13:01:56;16.00;99.90
26212;DHT22;13951;49.516;6.094;2023-03-23T13:04:42;16.40;99.90
26212;DHT22;13951;49.516;6.094;2023-03-23T13:07:25;16.50;99.90
26212;DHT22;13951;49.516;6.094;2023-03-23T13:12:51;16.30;99.90
26212;DHT22;13951;49.516;6.094;2023-03-23T13:18:46;15.60;99.90
26212;DHT22;13951;49.516;6.094;2023-03-23T13:21:32;15.30;99.90
26212;DHT22;13951;49.516;6.094;2023-03-23T13:24:10;15.00;99.90
26212;DHT22;13951;49.516;6.094;2023-03-23T13:26:44;14.90;99.90
26212;DHT22;13951;49.516;6.094;2023-03-23T13:29:18;14.90;99.90
26212;DHT22;13951;49.516;6.094;2023-03-23T13:31:51;14.90;99.90
26212;DHT22;13951;49.516;6.094;2023-03-23T13:34:25;14.90;99.90
26212;DHT22;13951;49.516;6.094;2023-03-23T13:37:02;14.80;99.90
26212;DHT22;13951;49.516;6.094;2023-03-23T13:39:38;14.60;99.90
26212;DHT22;13951;49.516;6.094;2023-03-23T13:42:21;14.50;99.90
26212;DHT22;13951;49.516;6.094;2023-03-23T13:47:28;14.30;99.90
26212;DHT22;13951;49.516;6.094;2023-03-23T13:50:11;14.30;99.90
26212;DHT22;13951;49.516;6.094;2023-03-23T13:52:54;14.50;99.90
26212;DHT22;13951;49.516;6.094;2023-03-23T13:55:49;14.60;99.90
26212;DHT22;13951;49.516;6.094;2023-03-23T13:58:24;14.60;99.90
26212;DHT22;13951;49.516;6.094;2023-03-23T14:03:42;14.60;99.90
26212;DHT22;13951;49.516;6.094;2023-03-23T14:06:17;14.60;99.90
26212;DHT22;13951;49.516;6.094;2023-03-23T14:09:53;14.60;99.90
26212;DHT22;13951;49.516;6.094;2023-03-23T14:12:26;14.60;99.90
26212;DHT22;13951;49.516;6.094;2023-03-23T14:15:02;14.50;99.90
26212;DHT22;13951;49.516;6.094;2023-03-23T14:17:41;14.50;99.90
26212;DHT22;13951;49.516;6.094;2023-03-23T14:20:29;14.40;99.90
26212;DHT22;13951;49.516;6.094;2023-03-23T14:23:03;14.30;99.90
26212;DHT22;13951;49.516;6.094;2023-03-23T14:25:35;14.30;99.90
26212;DHT22;13951;49.516;6.094;2023-03-23T14:28:18;14.30;99.90
26212;DHT22;13951;49.516;6.094;2023-03-23T14:30:53;14.30;99.90
26212;DHT22;13951;49.516;6.094;2023-03-23T14:33:26;14.20;99.90
26212;DHT22;13951;49.516;6.094;2023-03-23T14:35:59;14.20;99.90
26212;DHT22;13951;49.516;6.094;2023-03-23T14:38:31;14.20;99.90
26212;DHT22;13951;49.516;6.094;2023-03-23T14:41:04;14.10;99.90
26212;DHT22;13951;49.516;6.094;2023-03-23T14:43:36;14.10;99.90
26212;DHT22;13951;49.516;6.094;2023-03-23T14:46:11;14.10;99.90
26212;DHT22;13951;49.516;6.094;2023-03-23T14:48:44;14.20;99.90
26212;DHT22;13951;49.516;6.094;2023-03-23T14:51:20;14.20;99.90
26212;DHT22;13951;49.516;6.094;2023-03-23T14:53:53;14.20;99.90
26212;DHT22;13951;49.516;6.094;2023-03-23T14:56:35;14.20;99.90
26212;DHT22;13951;49.516;6.094;2023-03-23T14:59:11;14.30;99.90
26212;DHT22;13951;49.516;6.094;2023-03-23T15:01:52;14.30;99.90
26212;DHT22;13951;49.516;6.094;2023-03-23T15:04:25;14.30;99.90
26212;DHT22;13951;49.516;6.094;2023-03-23T15:07:04;14.30;99.90
26212;DHT22;13951;49.516;6.094;2023-03-23T15:09:41;14.30;99.90
26212;DHT22;13951;49.516;6.094;2023-03-23T15:12:24;14.20;99.90
26212;DHT22;13951;49.516;6.094;2023-03-23T15:15:04;14.20;99.90
26212;DHT22;13951;49.516;6.094;2023-03-23T15:17:37;14.20;99.90
26212;DHT22;13951;49.516;6.094;2023-03-23T15:20:30;14.20;99.90
26212;DHT22;13951;49.516;6.094;2023-03-23T15:23:06;14.20;99.90
26212;DHT22;13951;49.516;6.094;2023-03-23T15:25:38;14.20;99.90
26212;DHT22;13951;49.516;6.094;2023-03-23T15:28:42;14.20;99.90
26212;DHT22;13951;49.516;6.094;2023-03-23T15:31:13;14.10;99.90
26212;DHT22;13951;49.516;6.094;2023-03-23T15:33:45;14.10;99.90
26212;DHT22;13951;49.516;6.094;2023-03-23T15:36:18;14.10;99.90
26212;DHT22;13951;49.516;6.094;2023-03-23T15:38:50;14.10;99.90
26212;DHT22;13951;49.516;6.094;2023-03-23T15:41:27;14.10;99.90
26212;DHT22;13951;49.516;6.094;2023-03-23T15:44:10;14.10;99.90
26212;DHT22;13951;49.516;6.094;2023-03-23T15:46:52;14.20;99.90
26212;DHT22;13951;49.516;6.094;2023-03-23T15:49:24;14.20;99.90
26212;DHT22;13951;49.516;6.094;2023-03-23T15:51:56;14.20;99.90
26212;DHT22;13951;49.516;6.094;2023-03-23T15:54:30;14.20;99.90
26212;DHT22;13951;49.516;6.094;2023-03-23T15:57:03;14.20;99.90
26212;DHT22;13951;49.516;6.094;2023-03-23T15:59:35;14.20;99.90
26212;DHT22;13951;49.516;6.094;2023-03-23T16:02:16;14.20;99.90
26212;DHT22;13951;49.516;6.094;2023-03-23T16:04:52;14.10;99.90
26212;DHT22;13951;49.516;6.094;2023-03-23T16:07:25;14.20;99.90
26212;DHT22;13951;49.516;6.094;2023-03-23T16:09:58;14.20;99.90
26212;DHT22;13951;49.516;6.094;2023-03-23T16:12:31;14.20;99.90
26212;DHT22;13951;49.516;6.094;2023-03-23T16:15:04;14.20;99.90
26212;DHT22;13951;49.516;6.094;2023-03-23T16:17:37;14.10;99.90
26212;DHT22;13951;49.516;6.094;2023-03-23T16:20:17;14.10;99.90
26212;DHT22;13951;49.516;6.094;2023-03-23T16:22:51;14.10;99.90
26212;DHT22;13951;49.516;6.094;2023-03-23T16:25:24;14.10;99.90
26212;DHT22;13951;49.516;6.094;2023-03-23T16:27:57;14.00;99.90
26212;DHT22;13951;49.516;6.094;2023-03-23T16:30:33;14.00;99.90
26212;DHT22;13951;49.516;6.094;2023-03-23T16:33:07;14.00;99.90
26212;DHT22;13951;49.516;6.094;2023-03-23T16:35:40;13.90;99.90
26212;DHT22;13951;49.516;6.094;2023-03-23T16:38:15;13.90;99.90
26212;DHT22;13951;49.516;6.094;2023-03-23T16:40:48;14.00;99.90
26212;DHT22;13951;49.516;6.094;2023-03-23T16:43:21;14.00;99.90
26212;DHT22;13951;49.516;6.094;2023-03-23T16:45:55;14.00;99.90
26212;DHT22;13951;49.516;6.094;2023-03-23T16:48:28;14.00;99.90
26212;DHT22;13951;49.516;6.094;2023-03-23T16:51:01;14.00;99.90
26212;DHT22;13951;49.516;6.094;2023-03-23T16:53:34;14.00;99.90
26212;DHT22;13951;49.516;6.094;2023-03-23T16:56:07;13.90;99.90
26212;DHT22;13951;49.516;6.094;2023-03-23T16:58:40;13.90;99.90
26212;DHT22;13951;49.516;6.094;2023-03-23T17:01:13;13.90;99.90
26212;DHT22;13951;49.516;6.094;2023-03-23T17:03:47;13.80;99.90
26212;DHT22;13951;49.516;6.094;2023-03-23T17:06:20;13.80;99.90
26212;DHT22;13951;49.516;6.094;2023-03-23T17:08:53;13.70;99.90
26212;DHT22;13951;49.516;6.094;2023-03-23T17:11:25;13.70;99.90
26212;DHT22;13951;49.516;6.094;2023-03-23T17:13:58;13.60;99.90
26212;DHT22;13951;49.516;6.094;2023-03-23T17:16:31;13.60;99.90
26212;DHT22;13951;49.516;6.094;2023-03-23T17:19:04;13.60;99.90
26212;DHT22;13951;49.516;6.094;2023-03-23T17:21:39;13.50;99.90
26212;DHT22;13951;49.516;6.094;2023-03-23T17:24:12;13.50;99.90
26212;DHT22;13951;49.516;6.094;2023-03-23T17:26:44;13.50;99.90
26212;DHT22;13951;49.516;6.094;2023-03-23T17:29:18;13.50;99.90
26212;DHT22;13951;49.516;6.094;2023-03-23T17:31:51;13.40;99.90
26212;DHT22;13951;49.516;6.094;2023-03-23T17:34:24;13.40;99.90
26212;DHT22;13951;49.516;6.094;2023-03-23T17:36:56;13.40;99.90
26212;DHT22;13951;49.516;6.094;2023-03-23T17:39:29;13.40;99.90
26212;DHT22;13951;49.516;6.094;2023-03-23T17:42:14;13.30;99.90
26212;DHT22;13951;49.516;6.094;2023-03-23T17:44:47;13.30;99.90
26212;DHT22;13951;49.516;6.094;2023-03-23T17:47:20;13.30;99.90
26212;DHT22;13951;49.516;6.094;2023-03-23T17:49:53;13.20;99.90
26212;DHT22;13951;49.516;6.094;2023-03-23T17:52:25;13.20;99.90
26212;DHT22;13951;49.516;6.094;2023-03-23T17:54:58;13.20;99.90
26212;DHT22;13951;49.516;6.094;2023-03-23T17:57:31;13.20;99.90
26212;DHT22;13951;49.516;6.094;2023-03-23T18:00:05;13.20;99.90
26212;DHT22;13951;49.516;6.094;2023-03-23T18:02:41;13.20;99.90
26212;DHT22;13951;49.516;6.094;2023-03-23T18:05:14;13.20;99.90
26212;DHT22;13951;49.516;6.094;2023-03-23T18:07:47;13.20;99.90
26212;DHT22;13951;49.516;6.094;2023-03-23T18:10:20;13.10;99.90
26212;DHT22;13951;49.516;6.094;2023-03-23T18:12:52;13.10;99.90